Terminal Aerodrome Forecast
Issued by NWS Cleveland, OH

Home | Current Version | Previous Version | Text Only | Print | Product List | Glossary On
Versions: 1 2 3 4 5 6 7 8 9 10 11 12 13 14 15 16
723
FTUS41 KCLE 262015 AAA
TAFYNG
TAF AMD
KYNG 262015Z 2620/2718 20011KT P6SM SCT045
     FM270300 18006KT P6SM VCSH SCT050 BKN100
     FM270500 20007KT P6SM BKN070
     FM271000 20003KT 4SM BR SCT070
     FM271300 22006KT P6SM SCT050=

USA.gov is the U.S. government's official web portal to all federal, state and local government web resources and services.